createdAt,value
2022-11-05T00:08:49.136Z,0.47
2022-11-05T00:11:45.365Z,0.40
2022-11-05T00:14:35.304Z,0.50
2022-11-05T00:17:04.333Z,0.40
2022-11-05T00:19:33.291Z,0.30
2022-11-05T00:22:20.782Z,0.43
2022-11-05T00:25:08.206Z,0.50
2022-11-05T00:27:37.323Z,0.35
2022-11-05T00:30:08.263Z,0.50
2022-11-05T00:32:39.075Z,0.50
2022-11-05T00:35:12.250Z,0.40
2022-11-05T00:37:45.635Z,0.32
2022-11-05T00:40:17.974Z,0.35
2022-11-05T00:43:05.658Z,0.30
2022-11-05T00:45:34.662Z,0.45
2022-11-05T00:48:22.457Z,0.50
2022-11-05T00:50:54.409Z,0.40
2022-11-05T00:53:25.219Z,0.50
2022-11-05T00:55:58.007Z,0.40
2022-11-05T00:58:30.827Z,0.40
2022-11-05T01:01:01.353Z,0.43
2022-11-05T01:03:41.231Z,0.40
2022-11-05T01:06:26.478Z,0.60
2022-11-05T01:08:57.158Z,0.30
2022-11-05T01:11:37.822Z,0.38
2022-11-05T01:14:12.943Z,0.30
2022-11-05T01:16:42.553Z,0.40
2022-11-05T01:19:12.814Z,0.50
2022-11-05T01:21:42.153Z,0.30
2022-11-05T01:24:12.760Z,0.47
2022-11-05T01:26:41.848Z,0.40
2022-11-05T01:29:12.952Z,0.30
2022-11-05T01:31:42.378Z,0.40
2022-11-05T01:34:11.567Z,0.40
2022-11-05T01:36:43.681Z,0.30
2022-11-05T01:39:12.549Z,0.45
2022-11-05T01:41:41.491Z,0.30
2022-11-05T01:44:48.809Z,0.40
2022-11-05T01:47:58.625Z,0.50
2022-11-05T01:50:51.581Z,0.45
2022-11-05T01:53:34.808Z,0.52
2022-11-05T01:56:33.702Z,0.43
2022-11-05T01:59:32.249Z,0.50
2022-11-05T02:02:05.458Z,1.35
2022-11-05T02:04:49.758Z,0.40
2022-11-05T02:07:21.721Z,0.40
2022-11-05T02:10:02.842Z,0.40
2022-11-05T02:12:34.014Z,0.40
2022-11-05T02:15:07.533Z,0.40
2022-11-05T02:17:49.371Z,0.20
2022-11-05T02:20:53.364Z,0.35
2022-11-05T02:23:55.121Z,0.50
2022-11-05T02:26:48.643Z,0.30
2022-11-05T02:29:20.429Z,0.30
2022-11-05T02:32:33.776Z,0.30
2022-11-05T02:35:33.734Z,0.30
2022-11-05T02:38:38.422Z,0.40
2022-11-05T02:41:41.950Z,0.35
2022-11-05T02:44:29.653Z,0.45
2022-11-05T02:47:18.259Z,0.60
2022-11-05T02:50:17.210Z,0.30
2022-11-05T02:53:15.064Z,0.40
2022-11-05T02:55:49.792Z,0.30
2022-11-05T02:58:18.883Z,0.65
2022-11-05T03:00:54.817Z,0.50
2022-11-05T03:03:46.850Z,0.55
2022-11-05T03:06:40.327Z,0.55
2022-11-05T03:09:17.144Z,0.40
2022-11-05T03:14:54.891Z,0.57
2022-11-05T03:17:44.429Z,0.40
2022-11-05T03:20:21.074Z,0.50
2022-11-05T03:23:23.009Z,0.30
2022-11-05T03:25:59.767Z,0.38
2022-11-05T03:28:34.057Z,0.35
2022-11-05T03:31:07.732Z,0.60
2022-11-05T03:33:40.606Z,0.32
2022-11-05T03:36:20.030Z,0.40
2022-11-05T03:39:05.537Z,0.40
2022-11-05T03:41:36.161Z,0.45
2022-11-05T03:44:34.075Z,0.90
2022-11-05T03:47:07.849Z,0.40
2022-11-05T03:49:46.671Z,0.47
2022-11-05T03:52:23.418Z,0.50
2022-11-05T03:54:53.177Z,0.70
2022-11-05T03:57:34.559Z,0.60
2022-11-05T04:00:32.301Z,0.50
2022-11-05T04:03:08.278Z,0.47
2022-11-05T04:05:46.681Z,0.57
2022-11-05T04:08:36.114Z,0.45
2022-11-05T04:11:41.531Z,0.30
2022-11-05T04:14:21.927Z,0.50
2022-11-05T04:17:11.672Z,0.47
2022-11-05T04:20:29.009Z,0.28
2022-11-05T04:23:32.654Z,0.30
2022-11-05T04:26:01.462Z,0.30
2022-11-05T04:28:51.652Z,0.52
2022-11-05T04:31:20.531Z,0.35
2022-11-05T04:33:49.277Z,0.52
2022-11-05T04:36:21.145Z,0.50
2022-11-05T04:38:50.037Z,0.30
2022-11-05T04:41:24.307Z,0.65
2022-11-05T04:43:53.586Z,0.40
2022-11-05T04:46:22.384Z,0.55
2022-11-05T04:53:52.407Z,0.80
2022-11-05T04:56:24.303Z,0.60
2022-11-05T04:58:53.779Z,0.82
2022-11-05T05:01:28.703Z,0.82
2022-11-05T05:03:57.860Z,0.47
2022-11-05T05:06:26.708Z,0.75
2022-11-05T05:08:55.635Z,0.80
2022-11-05T05:11:24.440Z,1.00
2022-11-05T05:13:53.253Z,0.90
2022-11-05T05:16:25.020Z,0.50
2022-11-05T05:18:55.065Z,0.60
2022-11-05T05:21:39.737Z,0.73
2022-11-05T05:24:13.082Z,0.88
2022-11-05T05:26:47.664Z,1.17
2022-11-05T05:29:17.521Z,0.77
2022-11-05T05:31:46.795Z,1.02
2022-11-05T05:34:16.163Z,0.70
2022-11-05T05:36:47.692Z,1.02
2022-11-05T05:39:16.758Z,0.70
2022-11-05T05:41:45.613Z,0.80
2022-11-05T05:44:14.490Z,0.82
2022-11-05T05:46:43.215Z,0.80
2022-11-05T05:49:12.850Z,1.50
2022-11-05T05:51:41.918Z,2.15
2022-11-05T05:54:12.761Z,2.00
2022-11-05T05:56:45.055Z,2.20
2022-11-05T05:59:13.933Z,2.28
2022-11-05T06:01:43.166Z,1.95
2022-11-05T06:04:12.165Z,1.83
2022-11-05T06:06:41.018Z,2.40
2022-11-05T06:09:09.863Z,1.88
2022-11-05T06:11:38.631Z,3.08
2022-11-05T06:14:07.796Z,3.05
2022-11-05T06:16:36.695Z,2.58
2022-11-05T06:19:06.093Z,2.70
2022-11-05T06:21:35.217Z,2.67
2022-11-05T06:24:04.900Z,3.33
2022-11-05T06:26:33.684Z,2.72
2022-11-05T06:29:03.004Z,2.85
2022-11-05T06:31:33.470Z,2.95
2022-11-05T06:34:02.510Z,2.40
2022-11-05T06:36:34.002Z,2.25
2022-11-05T06:39:03.383Z,2.15
2022-11-05T06:41:45.648Z,2.30
2022-11-05T06:44:23.974Z,2.60
2022-11-05T06:46:52.744Z,2.97
2022-11-05T06:49:25.324Z,2.55
2022-11-05T06:51:54.198Z,2.30
2022-11-05T06:54:23.025Z,2.90
2022-11-05T06:56:51.951Z,3.67
2022-11-05T06:59:20.718Z,2.75
2022-11-05T07:01:49.596Z,2.97
2022-11-05T07:04:18.392Z,2.22
2022-11-05T07:06:47.254Z,2.22
2022-11-05T07:12:45.553Z,2.38
2022-11-05T07:15:14.404Z,2.72
2022-11-05T07:17:43.224Z,1.83
2022-11-05T07:20:12.541Z,2.22
2022-11-05T07:22:41.452Z,2.83
2022-11-05T07:25:10.373Z,2.38
2022-11-05T07:27:41.038Z,1.95
2022-11-05T07:30:12.243Z,2.17
2022-11-05T07:32:41.726Z,2.70
2022-11-05T07:35:11.272Z,2.55
2022-11-05T07:37:50.396Z,1.83
2022-11-05T07:40:23.853Z,3.00
2022-11-05T07:42:56.710Z,2.30
2022-11-05T07:45:26.681Z,2.60
2022-11-05T07:47:57.916Z,2.72
2022-11-05T07:50:28.838Z,2.30
2022-11-05T07:53:05.782Z,3.28
2022-11-05T07:55:36.420Z,3.22
2022-11-05T07:58:05.587Z,3.08
2022-11-05T08:00:35.477Z,3.40
2022-11-05T08:03:24.235Z,3.13
2022-11-05T08:05:53.168Z,3.25
2022-11-05T08:08:21.993Z,2.72
2022-11-05T08:10:50.924Z,3.53
2022-11-05T08:13:20.062Z,2.83
2022-11-05T08:15:48.863Z,3.30
2022-11-05T08:18:19.481Z,3.50
2022-11-05T08:20:49.828Z,2.63
2022-11-05T08:23:18.611Z,2.95
2022-11-05T08:25:47.426Z,2.72
2022-11-05T08:28:16.476Z,2.35
2022-11-05T08:30:45.256Z,1.92
2022-11-05T08:33:15.744Z,2.80
2022-11-05T08:35:45.347Z,2.42
2022-11-05T08:38:18.768Z,2.22
2022-11-05T08:40:56.742Z,2.72
2022-11-05T08:43:26.938Z,2.58
2022-11-05T08:45:56.300Z,2.50
2022-11-05T08:48:25.152Z,2.22
2022-11-05T08:50:54.087Z,3.88
2022-11-05T08:53:23.036Z,2.25
2022-11-05T08:55:52.379Z,2.50
2022-11-05T08:58:23.796Z,2.90
2022-11-05T09:00:52.690Z,3.45
2022-11-05T09:03:24.688Z,2.20
2022-11-05T09:05:53.504Z,2.97
2022-11-05T09:08:22.400Z,2.70
2022-11-05T09:10:51.232Z,2.03
2022-11-05T09:13:20.516Z,2.42
2022-11-05T09:15:51.160Z,2.13
2022-11-05T09:18:21.137Z,2.42
2022-11-05T09:20:50.093Z,3.42
2022-11-05T09:23:19.001Z,3.17
2022-11-05T09:25:48.550Z,2.55
2022-11-05T09:28:21.014Z,2.58
2022-11-05T09:30:54.075Z,2.83
2022-11-05T09:33:38.256Z,2.60
2022-11-05T09:36:07.528Z,2.75
2022-11-05T09:38:37.137Z,1.88
2022-11-05T09:41:21.872Z,2.15
2022-11-05T09:43:56.494Z,1.90
2022-11-05T09:46:34.277Z,2.50
2022-11-05T09:49:08.451Z,2.53
2022-11-05T09:51:41.581Z,2.00
2022-11-05T09:54:12.904Z,2.95
2022-11-05T09:56:43.051Z,2.33
2022-11-05T09:59:42.036Z,3.20
2022-11-05T10:02:20.377Z,2.60
2022-11-05T10:04:56.694Z,2.05
2022-11-05T10:07:28.365Z,2.55
2022-11-05T10:10:03.158Z,2.65
2022-11-05T10:12:35.491Z,2.42
2022-11-05T10:15:45.950Z,2.88
2022-11-05T10:18:31.337Z,3.30
2022-11-05T10:21:03.014Z,3.08
2022-11-05T10:23:34.844Z,4.15
2022-11-05T10:26:16.789Z,6.32
2022-11-05T10:28:45.784Z,2.95
2022-11-05T10:31:18.387Z,2.85
2022-11-05T10:33:51.528Z,4.18
2022-11-05T10:36:23.407Z,18.38
2022-11-05T10:38:53.826Z,21.95
2022-11-05T10:41:34.994Z,13.27
2022-11-05T10:44:33.882Z,17.20
2022-11-05T10:47:24.332Z,18.77
2022-11-05T10:50:02.470Z,19.70
2022-11-05T10:53:02.334Z,7.80
2022-11-05T10:55:38.436Z,3.20
2022-11-05T10:58:16.470Z,3.30
2022-11-05T11:01:00.698Z,3.20
2022-11-05T11:03:54.382Z,2.13
2022-11-05T11:06:29.512Z,2.20
2022-11-05T11:09:03.817Z,2.97
2022-11-05T11:11:41.456Z,2.95
2022-11-05T11:14:13.461Z,2.42
2022-11-05T11:16:44.919Z,2.17
2022-11-05T11:19:31.219Z,2.53
2022-11-05T11:22:06.314Z,1.97
2022-11-05T11:24:42.704Z,2.40
2022-11-05T11:27:27.564Z,2.58
2022-11-05T11:30:10.474Z,2.13
2022-11-05T11:32:48.571Z,2.13
2022-11-05T11:35:30.554Z,2.97
2022-11-05T11:38:01.968Z,2.63
2022-11-05T11:40:36.462Z,2.45
2022-11-05T11:43:15.160Z,2.78
2022-11-05T11:45:47.797Z,2.30
2022-11-05T11:48:23.448Z,3.00
2022-11-05T11:50:53.483Z,3.17
2022-11-05T11:53:24.543Z,3.08
2022-11-05T11:55:56.540Z,2.70
2022-11-05T11:58:41.143Z,4.75
2022-11-05T12:01:21.496Z,2.95
2022-11-05T12:03:59.674Z,2.40
2022-11-05T12:06:42.487Z,3.80
2022-11-05T12:09:47.815Z,3.40
2022-11-05T12:12:22.428Z,2.75
2022-11-05T12:15:16.347Z,2.95
2022-11-05T12:17:55.524Z,3.42
2022-11-05T12:20:58.134Z,3.65
2022-11-05T12:23:55.730Z,3.00
2022-11-05T12:26:54.568Z,3.05
2022-11-05T12:29:41.621Z,3.00
2022-11-05T12:32:41.205Z,3.60
2022-11-05T12:35:34.087Z,3.55
2022-11-05T12:38:13.506Z,3.00
2022-11-05T12:41:12.786Z,2.53
2022-11-05T12:44:10.928Z,3.05
2022-11-05T12:46:45.152Z,2.72
2022-11-05T12:49:47.772Z,2.90
2022-11-05T12:52:34.281Z,2.80
2022-11-05T12:55:20.026Z,2.80
2022-11-05T12:57:53.914Z,3.58
2022-11-05T13:00:28.512Z,2.30
2022-11-05T13:03:34.404Z,3.45
2022-11-05T13:06:10.482Z,2.97
2022-11-05T13:08:45.386Z,3.15
2022-11-05T13:11:18.327Z,2.78
2022-11-05T13:14:02.512Z,2.80
2022-11-05T13:16:34.014Z,2.70
2022-11-05T13:19:38.748Z,2.97
2022-11-05T13:22:26.047Z,3.05
2022-11-05T13:27:50.933Z,2.80
2022-11-05T13:30:23.612Z,4.10
2022-11-05T13:33:12.674Z,2.50
2022-11-05T13:36:24.502Z,2.50
2022-11-05T13:39:45.306Z,3.13
2022-11-05T13:42:37.793Z,3.90
2022-11-05T13:45:30.813Z,2.70
2022-11-05T13:48:06.569Z,2.25
2022-11-05T13:50:59.689Z,2.97
2022-11-05T13:53:34.079Z,3.15
2022-11-05T13:56:31.573Z,3.03
2022-11-05T13:59:37.399Z,3.05
2022-11-05T14:02:18.755Z,3.67
2022-11-05T14:04:56.683Z,2.40
2022-11-05T14:07:33.343Z,5.30
2022-11-05T14:10:23.358Z,3.58
2022-11-05T14:12:55.531Z,3.10
2022-11-05T14:15:30.369Z,3.08
2022-11-05T14:18:08.251Z,2.58
2022-11-05T14:20:44.077Z,2.95
2022-11-05T14:23:19.267Z,2.17
2022-11-05T14:25:54.309Z,2.38
2022-11-05T14:28:35.534Z,3.05
2022-11-05T14:31:20.114Z,2.60
2022-11-05T14:34:02.320Z,2.65
2022-11-05T14:36:41.825Z,2.53
2022-11-05T14:39:22.614Z,2.83
2022-11-05T14:42:01.163Z,2.08
2022-11-05T14:44:32.459Z,2.15
2022-11-05T14:47:08.867Z,1.90
2022-11-05T14:49:51.820Z,1.92
2022-11-05T14:52:22.037Z,1.83
2022-11-05T14:54:54.790Z,2.00
2022-11-05T14:57:56.168Z,2.72
2022-11-05T15:00:31.076Z,2.42
2022-11-05T15:03:03.853Z,1.90
2022-11-05T15:05:35.293Z,2.10
2022-11-05T15:08:42.710Z,2.05
2022-11-05T15:11:34.397Z,1.75
2022-11-05T15:14:08.554Z,2.38
2022-11-05T15:16:43.887Z,2.55
2022-11-05T15:19:24.607Z,2.15
2022-11-05T15:21:55.609Z,2.20
2022-11-05T15:24:28.867Z,2.20
2022-11-05T15:27:06.953Z,2.25
2022-11-05T15:29:36.274Z,3.10
2022-11-05T15:32:06.490Z,2.03
2022-11-05T15:34:38.242Z,2.13
2022-11-05T15:37:13.137Z,2.30
2022-11-05T15:39:47.981Z,2.47
2022-11-05T15:42:19.743Z,2.45
2022-11-05T15:44:50.936Z,2.72
2022-11-05T15:47:22.800Z,2.03
2022-11-05T15:50:07.456Z,2.42
2022-11-05T15:52:43.125Z,2.20
2022-11-05T15:55:20.898Z,2.30
2022-11-05T15:57:52.661Z,2.65
2022-11-05T16:00:25.158Z,2.85
2022-11-05T16:03:00.419Z,3.10
2022-11-05T16:05:33.449Z,2.53
2022-11-05T16:08:06.026Z,2.60
2022-11-05T16:10:40.956Z,2.22
2022-11-05T16:13:45.149Z,2.53
2022-11-05T16:16:16.873Z,3.15
2022-11-05T16:21:57.859Z,2.55
2022-11-05T16:24:29.294Z,2.70
2022-11-05T16:27:02.938Z,2.70
2022-11-05T16:29:36.643Z,2.72
2022-11-05T16:32:14.583Z,3.42
2022-11-05T16:34:49.207Z,2.85
2022-11-05T16:37:24.271Z,2.97
2022-11-05T16:39:54.192Z,2.63
2022-11-05T16:42:26.865Z,2.63
2022-11-05T16:44:56.588Z,2.78
2022-11-05T16:47:27.154Z,3.33
2022-11-05T16:49:55.947Z,3.67
2022-11-05T16:52:24.736Z,2.38
2022-11-05T16:54:54.603Z,2.80
2022-11-05T16:57:28.128Z,3.10
2022-11-05T16:59:59.853Z,2.92
2022-11-05T17:02:29.272Z,3.30
2022-11-05T17:04:58.219Z,2.67
2022-11-05T17:07:29.101Z,2.85
2022-11-05T17:10:09.615Z,2.60
2022-11-05T17:12:38.657Z,2.28
2022-11-05T17:15:27.019Z,2.78
2022-11-05T17:17:57.479Z,3.72
2022-11-05T17:20:42.496Z,2.72
2022-11-05T17:23:14.746Z,2.53
2022-11-05T17:25:51.003Z,3.10
2022-11-05T17:28:20.459Z,2.10
2022-11-05T17:30:58.084Z,1.98
2022-11-05T17:33:26.988Z,2.75
2022-11-05T17:35:59.220Z,2.35
2022-11-05T17:38:34.550Z,3.35
2022-11-05T17:41:10.641Z,1.98
2022-11-05T17:43:39.713Z,2.35
2022-11-05T17:49:25.469Z,2.80
2022-11-05T17:51:54.949Z,2.97
2022-11-05T17:54:23.792Z,3.30
2022-11-05T17:56:52.758Z,2.55
2022-11-05T17:59:21.652Z,2.53
2022-11-05T18:01:56.086Z,2.00
2022-11-05T18:04:25.411Z,2.55
2022-11-05T18:06:54.913Z,2.35
2022-11-05T18:09:23.917Z,2.88
2022-11-05T18:11:54.992Z,2.53
2022-11-05T18:14:24.398Z,2.88
2022-11-05T18:16:56.194Z,2.53
2022-11-05T18:19:29.409Z,2.30
2022-11-05T18:21:58.617Z,2.17
2022-11-05T18:24:30.674Z,2.20
2022-11-05T18:26:59.898Z,2.38
2022-11-05T18:29:33.117Z,2.58
2022-11-05T18:32:02.347Z,2.67
2022-11-05T18:34:34.151Z,3.10
2022-11-05T18:37:04.072Z,3.03
2022-11-05T18:39:34.041Z,2.35
2022-11-05T18:42:03.020Z,2.35
2022-11-05T18:44:37.856Z,1.90
2022-11-05T18:47:11.117Z,2.05
2022-11-05T18:49:46.506Z,1.98
2022-11-05T18:52:16.108Z,3.25
2022-11-05T18:54:50.832Z,2.40
2022-11-05T18:57:22.784Z,2.28
2022-11-05T18:59:53.876Z,2.53
2022-11-05T19:02:36.553Z,2.53
2022-11-05T19:05:27.954Z,2.42
2022-11-05T19:07:55.877Z,2.33
2022-11-05T19:10:25.358Z,2.45
2022-11-05T19:12:59.123Z,1.92
2022-11-05T19:15:30.435Z,2.25
2022-11-05T19:18:02.476Z,2.83
2022-11-05T19:20:36.652Z,2.17
2022-11-05T19:23:10.020Z,1.80
2022-11-05T19:30:13.673Z,1.80
2022-11-05T19:32:45.454Z,2.55
2022-11-05T19:35:14.340Z,1.83
2022-11-05T19:37:43.234Z,1.65
2022-11-05T19:40:29.724Z,2.20
2022-11-05T19:49:42.669Z,1.80
2022-11-05T19:52:11.714Z,2.15
2022-11-05T19:54:45.679Z,2.03
2022-11-05T19:57:15.013Z,2.45
2022-11-05T19:59:44.026Z,2.05
2022-11-05T20:02:17.052Z,1.65
2022-11-05T20:04:51.176Z,1.55
2022-11-05T20:07:20.305Z,2.13
2022-11-05T20:09:49.562Z,1.80
2022-11-05T20:12:18.761Z,1.98
2022-11-05T20:14:47.769Z,1.23
2022-11-05T20:17:17.261Z,1.45
2022-11-05T20:19:49.202Z,1.48
2022-11-05T20:22:18.382Z,1.67
2022-11-05T20:24:54.685Z,1.50
2022-11-05T20:27:28.171Z,1.42
2022-11-05T20:29:57.281Z,1.23
2022-11-05T20:32:29.259Z,1.40
2022-11-05T20:34:58.457Z,1.33
2022-11-05T20:37:27.418Z,0.98
2022-11-05T20:39:56.538Z,1.38
2022-11-05T20:42:26.230Z,1.40
2022-11-05T20:44:55.153Z,1.10
2022-11-05T20:47:27.721Z,1.23
2022-11-05T20:49:58.126Z,1.10
2022-11-05T20:52:28.721Z,1.38
2022-11-05T20:54:58.832Z,1.25
2022-11-05T20:57:40.590Z,1.42
2022-11-05T21:00:37.181Z,1.20
2022-11-05T21:03:06.630Z,1.17
2022-11-05T21:05:35.781Z,1.08
2022-11-05T21:08:04.753Z,1.10
2022-11-05T21:10:33.652Z,1.20
2022-11-05T21:13:02.614Z,1.40
2022-11-05T21:15:31.367Z,1.50
2022-11-05T21:18:01.035Z,1.20
2022-11-05T21:20:30.182Z,1.30
2022-11-05T21:22:59.005Z,1.60
2022-11-05T21:25:28.031Z,1.02
2022-11-05T21:27:56.776Z,1.05
2022-11-05T21:30:30.005Z,0.68
2022-11-05T21:33:21.347Z,0.90
2022-11-05T21:35:55.845Z,0.73
2022-11-05T21:38:28.193Z,1.58
2022-11-05T21:40:57.045Z,1.10
2022-11-05T21:43:26.164Z,1.30
2022-11-05T21:45:55.117Z,0.88
2022-11-05T21:48:31.245Z,0.77
2022-11-05T21:51:22.051Z,1.20
2022-11-05T21:54:13.654Z,1.42
2022-11-05T21:57:09.667Z,0.88
2022-11-05T21:59:52.944Z,1.10
2022-11-05T22:02:29.299Z,0.90
2022-11-05T22:05:00.700Z,1.02
2022-11-05T22:07:32.384Z,1.05
2022-11-05T22:10:01.830Z,0.90
2022-11-05T22:12:34.739Z,0.85
2022-11-05T22:15:04.639Z,1.00
2022-11-05T22:17:36.296Z,1.33
2022-11-05T22:20:07.163Z,0.63
2022-11-05T22:22:36.554Z,1.10
2022-11-05T22:25:05.864Z,0.50
2022-11-05T22:27:34.770Z,0.75
2022-11-05T22:30:03.674Z,0.73
2022-11-05T22:32:32.700Z,0.80
2022-11-05T22:35:01.549Z,0.80
2022-11-05T22:37:30.380Z,0.82
2022-11-05T22:40:00.254Z,0.70
2022-11-05T22:42:29.218Z,0.90
2022-11-05T22:44:59.701Z,1.00
2022-11-05T22:47:28.834Z,0.82
2022-11-05T22:49:59.023Z,1.00
2022-11-05T22:52:28.511Z,1.00
2022-11-05T22:54:57.363Z,0.82
2022-11-05T22:57:28.653Z,1.05
2022-11-05T22:59:57.628Z,1.00
2022-11-05T23:02:26.627Z,1.02
2022-11-05T23:04:56.756Z,1.08
2022-11-05T23:19:45.076Z,1.20
2022-11-05T23:22:42.731Z,1.00
2022-11-05T23:25:31.122Z,1.10
2022-11-05T23:28:16.089Z,1.13
2022-11-05T23:31:04.262Z,1.50
2022-11-05T23:33:35.555Z,1.02
2022-11-05T23:36:23.844Z,1.58
2022-11-05T23:38:52.839Z,1.25
2022-11-05T23:41:43.263Z,1.25
2022-11-05T23:44:30.687Z,1.40
2022-11-05T23:49:50.569Z,1.05
2022-11-05T23:52:34.940Z,1.10
2022-11-05T23:55:12.336Z,1.33
2022-11-05T23:59:18.325Z,1.50
